createdAt,value
2019-03-26T00:02:06.275Z,16.65
2019-03-26T00:48:04.612Z,9.90
2019-03-26T00:50:32.194Z,11.57
2019-03-26T00:52:59.733Z,9.68
2019-03-26T00:55:27.208Z,9.90
2019-03-26T00:57:54.922Z,9.70
2019-03-26T01:55:19.490Z,9.78
2019-03-26T01:57:47.940Z,11.15
2019-03-26T02:00:15.445Z,10.30
2019-03-26T04:55:57.559Z,5.12
2019-03-26T04:58:25.250Z,6.40
2019-03-26T05:00:52.826Z,7.20
2019-03-26T09:58:59.222Z,3.70
2019-03-26T10:01:26.564Z,3.80
2019-03-26T10:03:53.912Z,3.80
2019-03-26T10:06:23.635Z,4.60
2019-03-26T10:08:52.705Z,4.90
2019-03-26T10:11:19.278Z,4.17
2019-03-26T10:13:46.577Z,4.17
2019-03-26T10:16:13.932Z,5.67
2019-03-26T10:18:41.239Z,4.33
2019-03-26T10:21:08.515Z,4.70
2019-03-26T10:23:35.836Z,5.05
2019-03-26T10:26:03.215Z,4.78
2019-03-26T10:28:30.651Z,4.35
2019-03-26T10:30:57.991Z,5.00
2019-03-26T10:33:26.437Z,4.42
2019-03-26T10:36:03.855Z,4.80
2019-03-26T10:38:31.335Z,4.65
2019-03-26T10:40:58.687Z,3.87
2019-03-26T10:43:26.107Z,4.80
2019-03-26T10:45:53.419Z,4.30
2019-03-26T10:48:20.923Z,5.65
2019-03-26T10:50:48.275Z,4.80
2019-03-26T10:53:15.608Z,4.78
2019-03-26T10:55:42.975Z,4.85
2019-03-26T10:58:10.275Z,4.22
2019-03-26T11:00:37.622Z,4.20
2019-03-26T11:03:05.052Z,4.03
2019-03-26T11:05:32.465Z,4.25
2019-03-26T11:07:59.777Z,3.95
2019-03-26T11:10:27.359Z,4.45
2019-03-26T11:12:54.770Z,4.25
2019-03-26T11:15:22.065Z,4.25
2019-03-26T11:17:49.546Z,5.35
2019-03-26T11:20:17.249Z,4.10
2019-03-26T11:22:44.579Z,5.05
2019-03-26T11:25:12.393Z,3.95
2019-03-26T11:27:39.758Z,4.62
2019-03-26T11:30:07.728Z,4.40
2019-03-26T11:32:35.215Z,4.60
2019-03-26T11:35:02.605Z,4.33
2019-03-26T11:37:29.943Z,3.85
2019-03-26T11:39:57.572Z,5.03
2019-03-26T11:42:24.901Z,4.10
2019-03-26T11:44:52.191Z,3.60
2019-03-26T11:47:19.469Z,4.00
2019-03-26T11:49:46.756Z,4.20
2019-03-26T11:52:14.138Z,4.12
2019-03-26T11:54:41.860Z,4.58
2019-03-26T11:57:09.228Z,3.60
2019-03-26T11:59:36.553Z,4.03
2019-03-26T12:02:04.929Z,3.87
2019-03-26T12:04:32.217Z,5.10
2019-03-26T12:06:59.511Z,3.95
2019-03-26T12:09:26.779Z,4.50
2019-03-26T12:11:54.083Z,3.98
2019-03-26T12:14:21.353Z,4.30
2019-03-26T12:16:48.637Z,4.30
2019-03-26T12:19:15.942Z,4.42
2019-03-26T12:21:43.294Z,4.25
2019-03-26T12:24:10.641Z,4.47
2019-03-26T12:26:37.932Z,3.70
2019-03-26T12:29:05.403Z,4.00
2019-03-26T12:31:32.741Z,4.10
2019-03-26T12:34:00.586Z,3.75
2019-03-26T12:36:39.421Z,3.40
2019-03-26T12:38:56.891Z,3.55
2019-03-26T12:41:24.192Z,3.55
2019-03-26T12:43:51.479Z,3.70
2019-03-26T12:46:18.848Z,3.08
2019-03-26T12:48:46.208Z,3.85
2019-03-26T12:51:13.483Z,3.37
2019-03-26T12:53:41.119Z,3.65
2019-03-26T12:56:08.475Z,3.20
2019-03-26T12:58:36.608Z,4.12
2019-03-26T13:01:04.258Z,3.62
2019-03-26T13:03:31.642Z,4.00
2019-03-26T13:05:59.094Z,3.30
2019-03-26T13:08:29.492Z,4.25
2019-03-26T13:10:56.859Z,3.62
2019-03-26T13:13:24.312Z,4.40
2019-03-26T13:15:54.284Z,4.65
2019-03-26T13:18:21.587Z,4.65
2019-03-26T13:20:49.010Z,4.80
2019-03-26T13:23:16.466Z,5.20
2019-03-26T13:25:44.958Z,3.95
2019-03-26T13:28:12.414Z,4.22
2019-03-26T13:30:39.876Z,4.67
2019-03-26T13:33:07.262Z,6.22
2019-03-26T13:35:34.636Z,4.87
2019-03-26T13:38:01.968Z,4.62
2019-03-26T13:40:29.362Z,5.85
2019-03-26T13:42:56.678Z,3.60
2019-03-26T13:45:24.076Z,3.58
2019-03-26T13:47:51.376Z,3.30
2019-03-26T13:50:18.726Z,3.60
2019-03-26T13:52:46.094Z,5.25
2019-03-26T13:55:13.544Z,6.40
2019-03-26T13:57:40.929Z,4.87
2019-03-26T14:00:08.454Z,5.00
2019-03-26T14:02:35.738Z,4.12
2019-03-26T14:05:04.938Z,3.83
2019-03-26T14:07:32.313Z,4.80
2019-03-26T14:09:59.707Z,4.15
2019-03-26T14:12:27.512Z,3.80
2019-03-26T14:14:54.830Z,4.30
2019-03-26T14:17:22.170Z,4.22
2019-03-26T14:19:49.548Z,4.17
2019-03-26T14:22:16.832Z,4.00
2019-03-26T14:24:44.202Z,4.33
2019-03-26T14:27:11.636Z,3.22
2019-03-26T14:29:39.293Z,4.10
2019-03-26T14:32:06.730Z,4.40
2019-03-26T14:34:35.665Z,4.65
2019-03-26T14:37:04.773Z,4.80
2019-03-26T14:39:32.155Z,4.47
2019-03-26T14:41:59.456Z,5.15
2019-03-26T14:44:26.804Z,5.20
2019-03-26T14:46:54.117Z,5.08
2019-03-26T14:49:21.454Z,5.25
2019-03-26T14:51:49.687Z,5.78
2019-03-26T14:54:17.230Z,4.62
2019-03-26T14:56:45.842Z,4.85
2019-03-26T14:59:13.319Z,4.30
2019-03-26T15:01:40.676Z,4.10
2019-03-26T15:04:08.106Z,3.67
2019-03-26T15:06:37.563Z,4.03
2019-03-26T15:09:06.789Z,4.53
2019-03-26T15:11:34.187Z,3.60
2019-03-26T15:14:01.632Z,3.35
2019-03-26T15:16:29.924Z,4.15
2019-03-26T15:18:57.392Z,4.72
2019-03-26T15:21:25.144Z,4.28
2019-03-26T15:23:52.489Z,4.22
2019-03-26T15:26:19.809Z,4.00
2019-03-26T15:28:47.112Z,4.78
2019-03-26T15:31:14.451Z,4.15
2019-03-26T15:33:42.837Z,2.77
2019-03-26T15:36:10.174Z,4.00
2019-03-26T15:38:37.503Z,3.42
2019-03-26T15:41:04.877Z,3.30
2019-03-26T15:43:32.249Z,3.45
2019-03-26T15:45:59.697Z,2.75
2019-03-26T15:48:26.999Z,3.20
2019-03-26T15:50:54.294Z,3.10
2019-03-26T15:53:21.604Z,3.55
2019-03-26T15:55:48.946Z,4.55
2019-03-26T15:58:16.314Z,3.50
2019-03-26T16:00:43.711Z,3.33
2019-03-26T16:03:11.160Z,3.45
2019-03-26T16:05:38.543Z,3.25
2019-03-26T16:08:05.941Z,3.05
2019-03-26T16:10:33.276Z,3.75
2019-03-26T16:13:00.672Z,3.20
2019-03-26T16:15:28.120Z,2.55
2019-03-26T16:17:55.520Z,3.08
2019-03-26T16:20:22.929Z,2.87
2019-03-26T16:22:50.286Z,3.15
2019-03-26T16:25:17.684Z,3.47
2019-03-26T16:27:45.099Z,2.98
2019-03-26T16:30:13.127Z,3.45
2019-03-26T16:32:40.491Z,3.35
2019-03-26T16:35:07.858Z,3.20
2019-03-26T16:37:35.155Z,2.75
2019-03-26T16:40:02.611Z,3.30
2019-03-26T16:42:29.930Z,3.37
2019-03-26T16:44:57.251Z,3.80
2019-03-26T16:47:24.584Z,4.08
2019-03-26T16:49:52.013Z,3.77
2019-03-26T16:52:19.358Z,3.50
2019-03-26T16:54:50.478Z,3.00
2019-03-26T16:57:17.885Z,3.10
2019-03-26T16:59:47.201Z,3.12
2019-03-26T17:02:14.672Z,3.70
2019-03-26T17:04:42.034Z,3.80
2019-03-26T17:07:11.944Z,3.42
2019-03-26T17:09:39.481Z,3.15
2019-03-26T17:12:06.775Z,3.70
2019-03-26T17:14:34.189Z,3.22
2019-03-26T17:17:01.569Z,3.15
2019-03-26T17:19:31.234Z,3.70
2019-03-26T17:21:58.085Z,3.30
2019-03-26T17:24:25.431Z,4.67
2019-03-26T19:06:33.089Z,6.40
2019-03-26T19:09:00.681Z,6.70
2019-03-26T19:11:28.090Z,7.05
2019-03-26T19:13:55.879Z,6.35
2019-03-26T19:27:04.472Z,5.75
2019-03-26T19:29:32.634Z,4.90
2019-03-26T19:32:00.004Z,5.05
2019-03-26T19:42:27.984Z,5.50
2019-03-26T19:44:54.976Z,5.03
2019-03-26T19:50:17.636Z,6.08
2019-03-26T19:52:45.180Z,6.37
2019-03-26T19:55:12.719Z,6.85
2019-03-26T19:57:40.072Z,5.87
2019-03-26T20:03:01.144Z,6.80
2019-03-26T20:06:55.586Z,6.50
2019-03-26T20:08:22.377Z,6.50
2019-03-26T20:10:49.832Z,6.20
2019-03-26T20:13:24.255Z,6.00
2019-03-26T20:15:46.806Z,6.75
2019-03-26T20:18:14.319Z,6.90
2019-03-26T20:20:41.808Z,7.25
2019-03-26T20:23:09.242Z,5.95
2019-03-26T20:25:36.620Z,8.50
2019-03-26T20:28:04.168Z,6.70
2019-03-26T20:30:31.611Z,6.50
2019-03-26T20:32:58.981Z,7.17
2019-03-26T20:35:26.325Z,6.65
2019-03-26T20:37:53.697Z,8.55
2019-03-26T20:40:21.001Z,7.47
2019-03-26T20:42:48.380Z,7.85
2019-03-26T20:45:15.843Z,7.00
2019-03-26T20:47:43.185Z,7.53
2019-03-26T20:53:04.587Z,7.50
2019-03-26T20:58:25.641Z,7.37
2019-03-26T21:00:52.969Z,7.80
2019-03-26T21:03:20.324Z,7.22
2019-03-26T21:05:47.777Z,7.83
2019-03-26T21:08:15.062Z,8.83
2019-03-26T21:10:42.376Z,7.10
2019-03-26T21:13:09.722Z,7.37
2019-03-26T21:15:37.066Z,7.50
2019-03-26T21:18:04.364Z,7.40
2019-03-26T21:20:31.672Z,9.08
2019-03-26T21:22:58.993Z,8.05
2019-03-26T21:25:26.262Z,8.05
2019-03-26T21:27:53.622Z,8.08
2019-03-26T21:30:21.004Z,8.18
2019-03-26T21:32:48.305Z,9.68
2019-03-26T21:35:15.685Z,9.15
2019-03-26T21:37:42.988Z,8.08
2019-03-26T21:43:04.335Z,7.65
2019-03-26T21:48:38.868Z,7.30
2019-03-26T21:51:06.218Z,6.95
2019-03-26T21:53:33.567Z,7.97
2019-03-26T21:56:06.310Z,7.90
2019-03-26T21:58:29.923Z,7.25
2019-03-26T22:00:57.380Z,7.50
2019-03-26T22:03:24.657Z,7.30
2019-03-26T22:05:51.954Z,7.40
2019-03-26T22:08:19.241Z,7.30
2019-03-26T22:10:46.533Z,8.03
2019-03-26T22:13:13.820Z,6.90
2019-03-26T22:15:41.190Z,7.22
2019-03-26T22:18:08.497Z,7.50
2019-03-26T22:20:35.912Z,7.62
2019-03-26T22:23:03.296Z,6.92
2019-03-26T22:25:30.812Z,8.10
2019-03-26T22:27:58.171Z,8.03
2019-03-26T22:30:25.459Z,8.35
2019-03-26T22:32:52.751Z,7.60
2019-03-26T22:35:20.046Z,7.00
2019-03-26T22:37:47.362Z,7.40
2019-03-26T22:40:15.009Z,7.42
2019-03-26T22:42:42.324Z,7.62
2019-03-26T22:48:16.951Z,7.35
2019-03-26T22:50:44.233Z,7.97
2019-03-26T22:53:11.526Z,8.13
2019-03-26T22:55:38.860Z,6.83
2019-03-26T22:58:06.177Z,7.22
2019-03-26T23:03:21.610Z,8.40
2019-03-26T23:05:48.904Z,8.40
2019-03-26T23:08:16.186Z,8.75
2019-03-26T23:10:43.550Z,7.90
2019-03-26T23:13:10.840Z,7.25
2019-03-26T23:15:38.204Z,7.33
2019-03-26T23:21:02.955Z,8.75
2019-03-26T23:23:30.312Z,9.08
2019-03-26T23:25:57.628Z,10.10
2019-03-26T23:28:24.907Z,10.75
2019-03-26T23:30:52.266Z,11.05
2019-03-26T23:33:19.595Z,10.15
2019-03-26T23:35:46.986Z,11.28
2019-03-26T23:38:14.352Z,9.13
2019-03-26T23:40:41.677Z,11.20
2019-03-26T23:43:08.991Z,10.80
2019-03-26T23:48:30.158Z,11.30
2019-03-26T23:50:57.520Z,12.68
2019-03-26T23:53:24.851Z,12.37
2019-03-26T23:55:52.119Z,12.70
2019-03-26T23:58:19.455Z,10.70
